createdAt,value
2019-02-18T00:04:33.280Z,72.74
2019-02-18T00:07:16.153Z,72.55
2019-02-18T00:12:50.051Z,71.49
2019-02-18T00:15:26.323Z,71.51
2019-02-18T00:17:57.308Z,71.22
2019-02-18T00:20:39.935Z,71.79
2019-02-18T00:23:18.685Z,72.00
2019-02-18T00:25:49.309Z,71.87
2019-02-18T00:34:13.255Z,72.34
2019-02-18T00:36:45.268Z,72.45
2019-02-18T00:39:15.854Z,73.25
2019-02-18T00:41:56.741Z,73.83
2019-02-18T00:44:38.572Z,73.75
2019-02-18T00:47:09.175Z,73.95
2019-02-18T00:49:41.989Z,73.59
2019-02-18T00:52:23.707Z,74.16
2019-02-18T00:55:05.501Z,73.87
2019-02-18T00:57:37.734Z,73.61
2019-02-18T01:00:09.783Z,74.13
2019-02-18T01:02:59.817Z,73.40
2019-02-18T01:05:30.420Z,74.18
2019-02-18T01:08:01.008Z,74.14
2019-02-18T01:10:50.934Z,74.08
2019-02-18T01:13:21.565Z,73.61
2019-02-18T01:15:52.193Z,74.43
2019-02-18T01:18:42.091Z,74.05
2019-02-18T01:21:12.712Z,74.88
2019-02-18T01:23:43.335Z,74.66
2019-02-18T01:26:33.198Z,74.74
2019-02-18T01:29:22.573Z,75.16
2019-02-18T01:32:12.452Z,75.36
2019-02-18T01:34:43.085Z,75.13
2019-02-18T01:37:14.005Z,74.70
2019-02-18T01:42:34.340Z,74.67
2019-02-18T01:45:07.700Z,75.18
2019-02-18T01:47:38.380Z,75.19
2019-02-18T01:50:28.313Z,75.77
2019-02-18T01:52:59.266Z,75.67
2019-02-18T01:55:32.408Z,75.30
2019-02-18T01:58:22.208Z,75.02
2019-02-18T02:00:53.212Z,74.71
2019-02-18T02:03:25.286Z,74.76
2019-02-18T02:06:26.800Z,74.23
2019-02-18T02:08:58.491Z,73.94
2019-02-18T02:11:29.468Z,74.68
2019-02-18T02:14:11.384Z,75.28
2019-02-18T02:16:53.981Z,75.34
2019-02-18T02:19:24.498Z,75.24
2019-02-18T02:22:09.311Z,75.92
2019-02-18T02:24:39.919Z,74.92
2019-02-18T02:27:12.020Z,74.73
2019-02-18T02:29:54.392Z,74.58
2019-02-18T02:32:24.971Z,74.31
2019-02-18T02:34:55.452Z,75.41
2019-02-18T02:37:37.333Z,75.33
2019-02-18T02:40:19.939Z,75.90
2019-02-18T02:42:51.491Z,75.88
2019-02-18T02:45:22.422Z,76.12
2019-02-18T02:47:54.552Z,76.76
2019-02-18T02:50:25.145Z,76.63
2019-02-18T02:52:55.629Z,76.73
2019-02-18T02:55:38.235Z,76.69
2019-02-18T02:58:20.760Z,76.36
2019-02-18T03:00:51.299Z,75.84
2019-02-18T03:03:21.813Z,76.10
2019-02-18T03:06:04.252Z,76.24
2019-02-18T03:08:45.932Z,76.41
2019-02-18T03:11:16.488Z,76.43
2019-02-18T03:17:10.380Z,75.43
2019-02-18T03:20:20.550Z,75.98
2019-02-18T03:22:51.151Z,76.08
2019-02-18T03:28:36.125Z,76.02
2019-02-18T03:31:20.053Z,76.45
2019-02-18T03:33:55.024Z,76.71
2019-02-18T03:36:25.668Z,76.40
2019-02-18T03:39:15.513Z,77.16
2019-02-18T03:44:48.663Z,76.53
2019-02-18T03:47:31.080Z,77.32
2019-02-18T03:50:02.611Z,77.19
2019-02-18T03:52:33.106Z,76.94
2019-02-18T03:55:15.222Z,76.77
2019-02-18T03:57:57.497Z,77.01
2019-02-18T04:00:28.422Z,77.26
2019-02-18T04:02:58.921Z,77.95
2019-02-18T04:05:49.367Z,77.75
2019-02-18T04:08:19.942Z,78.00
2019-02-18T04:10:50.923Z,77.93
2019-02-18T04:13:21.466Z,77.33
2019-02-18T04:15:52.283Z,77.90
2019-02-18T04:18:22.964Z,77.64
2019-02-18T04:20:53.829Z,78.01
2019-02-18T04:26:55.572Z,77.94
2019-02-18T04:29:37.782Z,79.07
2019-02-18T04:32:19.625Z,78.79
2019-02-18T04:34:50.170Z,79.25
2019-02-18T04:37:20.836Z,78.77
2019-02-18T04:40:02.637Z,78.87
2019-02-18T04:42:44.684Z,78.72
2019-02-18T04:45:16.474Z,79.62
2019-02-18T04:47:46.961Z,79.35
2019-02-18T04:50:36.874Z,79.97
2019-02-18T04:53:07.539Z,79.49
2019-02-18T04:55:38.406Z,80.63
2019-02-18T04:58:28.387Z,80.37
2019-02-18T05:00:58.947Z,80.37
2019-02-18T05:06:25.511Z,80.18
2019-02-18T05:09:05.043Z,80.28
2019-02-18T05:11:36.013Z,80.61
2019-02-18T05:14:26.048Z,81.03
2019-02-18T05:16:56.659Z,81.25
2019-02-18T05:19:46.261Z,82.21
2019-02-18T05:22:17.236Z,81.08
2019-02-18T05:24:50.053Z,81.25
2019-02-18T05:27:33.517Z,81.94
2019-02-18T05:30:16.069Z,81.49
2019-02-18T05:32:46.594Z,81.67
2019-02-18T05:35:38.359Z,81.96
2019-02-18T05:38:20.670Z,81.77
2019-02-18T05:40:51.317Z,81.42
2019-02-18T05:43:23.927Z,82.42
2019-02-18T05:46:13.715Z,82.26
2019-02-18T05:48:44.448Z,82.13
2019-02-18T05:51:37.587Z,81.99
2019-02-18T05:54:19.303Z,82.89
2019-02-18T05:56:50.257Z,81.55
2019-02-18T05:59:23.427Z,82.15
2019-02-18T06:02:06.056Z,82.71
2019-02-18T06:04:57.962Z,82.58
2019-02-18T06:07:28.521Z,82.47
2019-02-18T06:10:14.239Z,82.80
2019-02-18T06:12:47.477Z,82.43
2019-02-18T06:18:26.653Z,82.33
2019-02-18T06:21:16.780Z,82.29
2019-02-18T06:26:49.686Z,82.67
2019-02-18T06:29:32.256Z,82.36
2019-02-18T06:32:03.284Z,82.94
2019-02-18T06:34:57.056Z,82.60
2019-02-18T06:37:27.546Z,82.71
2019-02-18T06:39:58.156Z,82.54
2019-02-18T06:48:33.833Z,80.89
2019-02-18T06:51:04.364Z,80.46
2019-02-18T06:53:41.317Z,80.63
2019-02-18T06:56:11.843Z,80.16
2019-02-18T06:58:49.527Z,79.83
2019-02-18T07:01:59.512Z,80.01
2019-02-18T07:08:05.966Z,80.27
2019-02-18T07:10:41.331Z,80.38
2019-02-18T07:13:11.973Z,80.82
2019-02-18T07:16:01.584Z,81.49
2019-02-18T07:18:32.099Z,81.57
2019-02-18T07:21:02.741Z,81.67
2019-02-18T07:23:52.622Z,81.37
2019-02-18T07:26:44.227Z,80.89
2019-02-18T07:29:17.353Z,80.23
2019-02-18T07:32:00.941Z,79.27
2019-02-18T07:34:43.425Z,79.06
2019-02-18T07:40:23.696Z,75.59
2019-02-18T07:43:05.349Z,73.91
2019-02-18T07:48:38.627Z,73.45
2019-02-18T07:51:22.711Z,73.66
2019-02-18T07:54:04.466Z,72.88
2019-02-18T07:56:56.380Z,72.77
2019-02-18T07:59:26.973Z,73.49
2019-02-18T08:01:57.551Z,74.55
2019-02-18T08:04:47.383Z,72.60
2019-02-18T08:07:56.016Z,71.12
2019-02-18T08:11:04.725Z,70.60
2019-02-18T08:13:35.675Z,69.21
2019-02-18T08:16:31.774Z,68.55
2019-02-18T08:19:16.620Z,67.45
2019-02-18T08:22:23.390Z,69.67
2019-02-18T08:24:56.568Z,68.79
2019-02-18T08:27:46.370Z,71.27
2019-02-18T08:33:41.256Z,68.76
2019-02-18T08:36:11.931Z,66.84
2019-02-18T08:38:42.525Z,69.62
2019-02-18T08:41:33.534Z,69.26
2019-02-18T08:44:04.082Z,69.26
2019-02-18T08:46:34.525Z,64.85
2019-02-18T08:49:17.361Z,66.60
2019-02-18T08:51:59.855Z,66.91
2019-02-18T08:57:46.711Z,65.08
2019-02-18T09:09:13.435Z,50.54
2019-02-18T09:11:44.065Z,52.11
2019-02-18T09:18:09.238Z,46.88
2019-02-18T09:20:39.864Z,45.04
2019-02-18T09:23:47.950Z,42.39
2019-02-18T09:26:39.765Z,42.05
2019-02-18T09:29:39.946Z,40.58
2019-02-18T09:32:29.945Z,41.36
2019-02-18T09:35:02.445Z,39.63
2019-02-18T09:40:50.713Z,40.19
2019-02-18T09:43:37.690Z,39.20
2019-02-18T09:46:30.129Z,38.81
2019-02-18T09:49:00.786Z,38.90
2019-02-18T09:51:45.008Z,39.71
2019-02-18T09:54:24.012Z,37.53
2019-02-18T09:56:54.609Z,38.18
2019-02-18T09:59:44.240Z,36.05
2019-02-18T10:02:14.831Z,35.94
2019-02-18T10:04:57.239Z,35.97
2019-02-18T10:07:55.751Z,34.83
2019-02-18T10:10:26.305Z,33.69
2019-02-18T10:13:18.859Z,32.97
2019-02-18T10:15:49.542Z,34.37
2019-02-18T10:18:22.458Z,34.52
2019-02-18T10:32:57.435Z,30.39
2019-02-18T10:35:47.051Z,31.63
2019-02-18T10:38:40.249Z,31.51
2019-02-18T10:41:19.169Z,31.35
2019-02-18T10:51:10.538Z,32.54
2019-02-18T10:54:31.605Z,29.46
2019-02-18T10:57:39.841Z,32.07
2019-02-18T11:00:11.827Z,29.99
2019-02-18T11:02:42.284Z,29.24
2019-02-18T11:05:24.258Z,30.77
2019-02-18T11:08:06.526Z,30.53
2019-02-18T11:10:40.061Z,30.05
2019-02-18T11:16:22.909Z,28.88
2019-02-18T11:18:53.486Z,30.30
2019-02-18T11:21:24.798Z,28.20
2019-02-18T11:24:06.972Z,28.34
2019-02-18T11:26:48.551Z,31.20
2019-02-18T11:29:57.912Z,31.48
2019-02-18T11:35:37.303Z,31.99
2019-02-18T11:38:10.093Z,30.64
2019-02-18T11:41:01.539Z,28.98
2019-02-18T11:43:34.116Z,29.24
2019-02-18T11:46:04.468Z,28.41
2019-02-18T11:49:14.626Z,30.19
2019-02-18T11:51:44.920Z,28.36
2019-02-18T11:54:15.222Z,29.28
2019-02-18T11:56:57.587Z,28.76
2019-02-18T11:59:39.487Z,28.03
2019-02-18T12:02:09.783Z,28.09
2019-02-18T12:05:20.201Z,28.02
2019-02-18T12:08:11.761Z,28.48
2019-02-18T12:11:01.200Z,27.22
2019-02-18T12:13:52.980Z,27.87
2019-02-18T12:17:20.498Z,26.20
2019-02-18T12:19:49.359Z,28.02
2019-02-18T12:22:31.286Z,27.85
2019-02-18T12:25:13.678Z,28.63
2019-02-18T12:33:22.257Z,25.19
2019-02-18T12:35:54.209Z,24.37
2019-02-18T12:38:36.258Z,25.96
2019-02-18T12:41:08.565Z,24.37
2019-02-18T12:50:09.807Z,26.39
2019-02-18T12:52:52.255Z,26.38
2019-02-18T12:55:25.817Z,27.04
2019-02-18T12:58:15.619Z,27.90
2019-02-18T13:03:49.856Z,27.62
2019-02-18T13:06:32.148Z,28.38
2019-02-18T13:09:21.300Z,28.21
2019-02-18T13:14:54.107Z,29.73
2019-02-18T13:17:46.145Z,30.58
2019-02-18T13:20:18.307Z,29.91
2019-02-18T13:22:59.991Z,30.05
2019-02-18T13:25:47.457Z,31.31
2019-02-18T13:28:14.206Z,31.58
2019-02-18T13:30:46.577Z,31.74
2019-02-18T13:33:48.842Z,32.84
2019-02-18T13:36:15.551Z,32.67
2019-02-18T13:39:05.477Z,32.68
2019-02-18T13:41:46.318Z,33.68
2019-02-18T13:47:25.347Z,33.91
2019-02-18T13:50:16.863Z,33.55
2019-02-18T13:52:47.143Z,33.45
2019-02-18T13:55:29.409Z,33.70
2019-02-18T13:58:18.769Z,34.00
2019-02-18T14:01:10.442Z,33.54
2019-02-18T14:03:40.827Z,34.32
2019-02-18T14:06:11.088Z,33.93
2019-02-18T14:08:41.368Z,33.89
2019-02-18T14:11:26.816Z,34.75
2019-02-18T14:13:57.335Z,34.42
2019-02-18T14:17:24.642Z,34.50
2019-02-18T14:23:25.910Z,35.15
2019-02-18T14:26:15.275Z,35.36
2019-02-18T14:28:49.981Z,35.42
2019-02-18T14:31:20.260Z,35.04
2019-02-18T14:33:52.132Z,35.68
2019-02-18T14:36:22.452Z,36.36
2019-02-18T14:39:02.328Z,36.05
2019-02-18T14:44:36.730Z,37.81
2019-02-18T14:47:21.151Z,37.77
2019-02-18T14:49:53.583Z,38.86
2019-02-18T14:55:34.102Z,38.59
2019-02-18T14:58:07.662Z,38.15
2019-02-18T15:00:37.974Z,38.96
2019-02-18T15:03:32.254Z,39.79
2019-02-18T15:06:15.625Z,39.65
2019-02-18T15:15:14.887Z,39.37
2019-02-18T15:17:45.184Z,40.14
2019-02-18T15:20:15.506Z,41.10
2019-02-18T15:26:32.560Z,41.10
2019-02-18T15:35:45.203Z,42.00
2019-02-18T15:38:17.177Z,41.68
2019-02-18T15:40:48.487Z,41.43
2019-02-18T15:43:20.124Z,41.48
2019-02-18T15:46:02.143Z,43.35
2019-02-18T15:55:12.828Z,43.14
2019-02-18T15:57:44.106Z,44.14
2019-02-18T16:00:35.370Z,44.18
2019-02-18T16:03:05.743Z,43.63
2019-02-18T16:11:53.377Z,44.74
2019-02-18T16:14:23.784Z,45.46
2019-02-18T16:16:56.156Z,46.02
2019-02-18T16:23:04.411Z,45.00
2019-02-18T16:28:56.380Z,46.08
2019-02-18T16:34:46.209Z,46.10
2019-02-18T16:37:35.755Z,47.33
2019-02-18T16:40:28.366Z,46.74
2019-02-18T16:45:55.330Z,47.35
2019-02-18T16:48:54.101Z,47.39
2019-02-18T16:51:24.318Z,47.92
2019-02-18T16:54:06.763Z,48.09
2019-02-18T16:56:49.876Z,47.10
2019-02-18T17:05:41.240Z,51.04
2019-02-18T17:12:12.163Z,52.69
2019-02-18T17:14:26.264Z,52.99
2019-02-18T17:16:58.972Z,53.25
2019-02-18T17:19:41.143Z,51.83
2019-02-18T17:22:23.404Z,51.05
2019-02-18T17:27:48.464Z,51.79
2019-02-18T17:30:30.713Z,51.88
2019-02-18T17:33:32.552Z,52.99
2019-02-18T17:38:50.445Z,53.97
2019-02-18T17:44:10.076Z,56.04
2019-02-18T17:52:25.801Z,57.33
2019-02-18T17:55:48.339Z,57.43
2019-02-18T18:01:42.352Z,56.71
2019-02-18T18:07:28.039Z,58.83
2019-02-18T18:10:31.311Z,58.41
2019-02-18T18:13:00.098Z,58.26
2019-02-18T18:15:43.631Z,58.86
2019-02-18T18:18:14.188Z,58.75
2019-02-18T18:29:50.100Z,61.93
2019-02-18T18:32:23.087Z,61.39
2019-02-18T18:38:23.691Z,61.44
2019-02-18T18:41:13.298Z,61.56
2019-02-18T18:44:02.681Z,61.34
2019-02-18T18:46:50.466Z,61.38
2019-02-18T18:49:28.102Z,61.29
2019-02-18T18:51:58.419Z,60.72
2019-02-18T18:54:40.372Z,59.82
2019-02-18T18:57:22.523Z,59.15
2019-02-18T19:02:57.789Z,54.91
2019-02-18T19:05:39.783Z,53.22
2019-02-18T19:08:16.505Z,52.69
2019-02-18T19:11:08.462Z,50.79
2019-02-18T19:17:27.177Z,54.48
2019-02-18T19:20:00.354Z,56.29
2019-02-18T19:22:57.504Z,56.85
2019-02-18T19:29:21.588Z,56.95
2019-02-18T19:32:24.304Z,57.53
2019-02-18T19:35:07.372Z,56.97
2019-02-18T19:38:15.957Z,57.16
2019-02-18T19:44:14.098Z,55.44
2019-02-18T19:47:37.272Z,56.24
2019-02-18T19:50:21.002Z,57.05
2019-02-18T19:52:52.889Z,59.21
2019-02-18T19:55:46.274Z,59.84
2019-02-18T19:58:25.669Z,60.80
2019-02-18T20:01:15.312Z,62.13
2019-02-18T20:04:32.240Z,62.08
2019-02-18T20:09:50.808Z,64.01
2019-02-18T20:12:40.445Z,63.57
2019-02-18T20:24:49.339Z,66.81
2019-02-18T20:28:11.465Z,67.06
2019-02-18T20:30:59.245Z,66.80
2019-02-18T20:33:30.384Z,67.61
2019-02-18T20:36:10.358Z,67.53
2019-02-18T20:38:42.705Z,67.69
2019-02-18T20:41:13.069Z,67.88
2019-02-18T20:44:07.475Z,69.47
2019-02-18T20:46:42.061Z,70.58
2019-02-18T20:49:35.284Z,70.68
2019-02-18T20:54:53.994Z,67.87
2019-02-18T20:57:36.850Z,67.49
2019-02-18T21:00:12.696Z,65.75
2019-02-18T21:06:11.955Z,67.07
2019-02-18T21:08:42.284Z,66.69
2019-02-18T21:11:15.006Z,66.92
2019-02-18T21:13:58.154Z,67.44
2019-02-18T21:16:49.601Z,67.47
2019-02-18T21:22:01.438Z,69.01
2019-02-18T21:27:36.378Z,69.70
2019-02-18T21:30:09.753Z,69.62
2019-02-18T21:33:13.783Z,69.55
2019-02-18T21:39:21.750Z,69.71
2019-02-18T21:41:52.290Z,71.16
2019-02-18T21:47:56.170Z,70.26
2019-02-18T21:53:29.713Z,69.92
2019-02-18T21:56:14.459Z,71.40
2019-02-18T21:59:06.849Z,70.96
2019-02-18T22:01:48.161Z,71.32
2019-02-18T22:04:37.493Z,72.09
2019-02-18T22:07:07.807Z,73.06
2019-02-18T22:09:57.170Z,73.67
2019-02-18T22:12:29.877Z,73.53
2019-02-18T22:15:19.273Z,73.93
2019-02-18T22:18:46.950Z,74.13
2019-02-18T22:21:17.258Z,73.77
2019-02-18T22:23:59.253Z,72.18
2019-02-18T22:26:44.076Z,74.36
2019-02-18T22:29:50.130Z,73.21
2019-02-18T22:32:31.036Z,73.69
2019-02-18T22:35:02.385Z,73.64
2019-02-18T22:37:45.290Z,73.75
2019-02-18T22:40:15.597Z,73.88
2019-02-18T22:43:05.192Z,74.17
2019-02-18T22:45:35.439Z,75.85
2019-02-18T22:48:05.718Z,76.39
2019-02-18T22:50:35.964Z,75.00
2019-02-18T22:53:17.563Z,74.33
2019-02-18T22:56:02.839Z,70.94
2019-02-18T23:07:27.626Z,67.04
2019-02-18T23:10:17.155Z,67.32
2019-02-18T23:12:49.104Z,69.07
2019-02-18T23:15:31.442Z,69.73
2019-02-18T23:18:14.122Z,70.01
2019-02-18T23:23:27.175Z,69.53
2019-02-18T23:26:09.278Z,69.30
2019-02-18T23:31:33.114Z,70.19
2019-02-18T23:34:10.600Z,70.66
2019-02-18T23:36:41.265Z,71.49
2019-02-18T23:39:11.463Z,71.75
2019-02-18T23:45:34.101Z,73.34
2019-02-18T23:53:56.479Z,72.19
2019-02-18T23:56:39.007Z,72.30
2019-02-18T23:59:21.178Z,72.37
